sensor_id;sensor_type;location;lat;lon;timestamp;temperature;humidity
46890;DHT22;32625;51.080;16.970;2023-01-15T00:01:45;7.60;99.90
46890;DHT22;32625;51.080;16.970;2023-01-15T00:04:12;7.60;99.80
46890;DHT22;32625;51.080;16.970;2023-01-15T00:06:40;7.60;99.90
46890;DHT22;32625;51.080;16.970;2023-01-15T00:09:08;7.60;99.90
46890;DHT22;32625;51.080;16.970;2023-01-15T00:11:35;7.60;99.60
46890;DHT22;32625;51.080;16.970;2023-01-15T00:14:02;7.60;99.00
46890;DHT22;32625;51.080;16.970;2023-01-15T00:16:29;7.60;99.70
46890;DHT22;32625;51.080;16.970;2023-01-15T00:18:57;7.60;99.90
46890;DHT22;32625;51.080;16.970;2023-01-15T00:21:25;7.60;99.90
46890;DHT22;32625;51.080;16.970;2023-01-15T00:23:53;7.70;99.90
46890;DHT22;32625;51.080;16.970;2023-01-15T00:26:38;7.70;99.90
46890;DHT22;32625;51.080;16.970;2023-01-15T00:29:24;7.70;99.90
46890;DHT22;32625;51.080;16.970;2023-01-15T00:31:58;7.70;99.90
46890;DHT22;32625;51.080;16.970;2023-01-15T00:34:26;7.80;99.90
46890;DHT22;32625;51.080;16.970;2023-01-15T00:36:53;7.80;99.90
46890;DHT22;32625;51.080;16.970;2023-01-15T00:39:20;7.80;99.90
46890;DHT22;32625;51.080;16.970;2023-01-15T00:41:51;7.80;99.90
46890;DHT22;32625;51.080;16.970;2023-01-15T00:44:18;7.90;99.90
46890;DHT22;32625;51.080;16.970;2023-01-15T00:46:45;7.90;99.90
46890;DHT22;32625;51.080;16.970;2023-01-15T00:49:12;7.90;99.90
46890;DHT22;32625;51.080;16.970;2023-01-15T00:51:39;7.80;99.90
46890;DHT22;32625;51.080;16.970;2023-01-15T00:54:07;7.80;99.90
46890;DHT22;32625;51.080;16.970;2023-01-15T00:56:34;7.80;99.90
46890;DHT22;32625;51.080;16.970;2023-01-15T00:59:02;7.80;99.90
46890;DHT22;32625;51.080;16.970;2023-01-15T01:01:30;7.80;99.90
46890;DHT22;32625;51.080;16.970;2023-01-15T01:03:57;7.70;99.90
46890;DHT22;32625;51.080;16.970;2023-01-15T01:06:24;7.70;99.90
46890;DHT22;32625;51.080;16.970;2023-01-15T01:08:51;7.70;99.90
46890;DHT22;32625;51.080;16.970;2023-01-15T01:11:19;7.70;99.90
46890;DHT22;32625;51.080;16.970;2023-01-15T01:13:47;7.70;99.90
46890;DHT22;32625;51.080;16.970;2023-01-15T01:18:47;7.70;99.90
46890;DHT22;32625;51.080;16.970;2023-01-15T01:21:14;7.70;99.90
46890;DHT22;32625;51.080;16.970;2023-01-15T01:23:41;7.60;99.90
46890;DHT22;32625;51.080;16.970;2023-01-15T01:26:09;7.60;99.90
46890;DHT22;32625;51.080;16.970;2023-01-15T01:28:36;7.60;99.90
46890;DHT22;32625;51.080;16.970;2023-01-15T01:31:03;7.70;99.90
46890;DHT22;32625;51.080;16.970;2023-01-15T01:33:31;7.70;99.90
46890;DHT22;32625;51.080;16.970;2023-01-15T01:35:58;7.70;99.90
46890;DHT22;32625;51.080;16.970;2023-01-15T01:38:25;7.70;99.90
46890;DHT22;32625;51.080;16.970;2023-01-15T01:40:52;7.70;99.90
46890;DHT22;32625;51.080;16.970;2023-01-15T01:43:24;7.70;99.90
46890;DHT22;32625;51.080;16.970;2023-01-15T01:45:51;7.70;99.90
46890;DHT22;32625;51.080;16.970;2023-01-15T01:48:19;7.70;99.90
46890;DHT22;32625;51.080;16.970;2023-01-15T01:50:47;7.70;99.90
46890;DHT22;32625;51.080;16.970;2023-01-15T01:53:22;7.60;99.90
46890;DHT22;32625;51.080;16.970;2023-01-15T01:55:49;7.70;99.90
46890;DHT22;32625;51.080;16.970;2023-01-15T01:58:16;7.60;99.90
46890;DHT22;32625;51.080;16.970;2023-01-15T02:00:45;7.60;99.90
46890;DHT22;32625;51.080;16.970;2023-01-15T02:03:14;7.60;99.90
46890;DHT22;32625;51.080;16.970;2023-01-15T02:05:44;7.70;99.90
46890;DHT22;32625;51.080;16.970;2023-01-15T02:08:13;7.70;99.90
46890;DHT22;32625;51.080;16.970;2023-01-15T02:10:39;7.70;99.90
46890;DHT22;32625;51.080;16.970;2023-01-15T02:15:47;7.70;99.90
46890;DHT22;32625;51.080;16.970;2023-01-15T02:18:19;7.70;99.90
46890;DHT22;32625;51.080;16.970;2023-01-15T02:20:53;7.70;99.90
46890;DHT22;32625;51.080;16.970;2023-01-15T02:23:22;7.70;99.90
46890;DHT22;32625;51.080;16.970;2023-01-15T02:28:42;7.70;99.90
46890;DHT22;32625;51.080;16.970;2023-01-15T02:31:13;7.70;99.90
46890;DHT22;32625;51.080;16.970;2023-01-15T02:33:58;7.70;99.90
46890;DHT22;32625;51.080;16.970;2023-01-15T02:36:29;7.80;99.90
46890;DHT22;32625;51.080;16.970;2023-01-15T02:39:01;7.80;99.90
46890;DHT22;32625;51.080;16.970;2023-01-15T02:41:32;7.80;99.90
46890;DHT22;32625;51.080;16.970;2023-01-15T02:44:01;7.90;99.90
46890;DHT22;32625;51.080;16.970;2023-01-15T02:46:30;7.90;99.90
46890;DHT22;32625;51.080;16.970;2023-01-15T02:49:00;7.90;99.90
46890;DHT22;32625;51.080;16.970;2023-01-15T02:51:54;7.90;99.90
46890;DHT22;32625;51.080;16.970;2023-01-15T02:54:20;7.90;99.90
46890;DHT22;32625;51.080;16.970;2023-01-15T02:56:50;7.90;99.90
46890;DHT22;32625;51.080;16.970;2023-01-15T02:59:26;7.90;99.90
46890;DHT22;32625;51.080;16.970;2023-01-15T03:01:57;7.90;99.90
46890;DHT22;32625;51.080;16.970;2023-01-15T03:04:30;7.90;99.90
46890;DHT22;32625;51.080;16.970;2023-01-15T03:07:03;7.90;99.90
46890;DHT22;32625;51.080;16.970;2023-01-15T03:09:33;7.90;99.90
46890;DHT22;32625;51.080;16.970;2023-01-15T03:12:02;7.90;99.90
46890;DHT22;32625;51.080;16.970;2023-01-15T03:14:43;7.90;99.90
46890;DHT22;32625;51.080;16.970;2023-01-15T03:17:22;7.90;99.90
46890;DHT22;32625;51.080;16.970;2023-01-15T03:19:52;8.00;99.90
46890;DHT22;32625;51.080;16.970;2023-01-15T03:22:24;7.90;99.90
46890;DHT22;32625;51.080;16.970;2023-01-15T03:27:20;8.00;99.90
46890;DHT22;32625;51.080;16.970;2023-01-15T03:29:57;7.90;99.90
46890;DHT22;32625;51.080;16.970;2023-01-15T03:32:25;7.90;99.90
46890;DHT22;32625;51.080;16.970;2023-01-15T03:34:52;8.00;99.90
46890;DHT22;32625;51.080;16.970;2023-01-15T03:37:21;8.00;99.90
46890;DHT22;32625;51.080;16.970;2023-01-15T03:39:52;8.00;99.90
46890;DHT22;32625;51.080;16.970;2023-01-15T03:55:22;8.10;99.90
46890;DHT22;32625;51.080;16.970;2023-01-15T03:58:01;8.10;99.90
46890;DHT22;32625;51.080;16.970;2023-01-15T04:00:35;8.10;99.90
46890;DHT22;32625;51.080;16.970;2023-01-15T04:03:03;8.10;99.90
46890;DHT22;32625;51.080;16.970;2023-01-15T04:05:32;8.10;99.90
46890;DHT22;32625;51.080;16.970;2023-01-15T04:08:02;8.10;99.90
46890;DHT22;32625;51.080;16.970;2023-01-15T04:10:30;8.10;99.90
46890;DHT22;32625;51.080;16.970;2023-01-15T04:13:00;8.10;99.90
46890;DHT22;32625;51.080;16.970;2023-01-15T04:15:28;8.10;99.90
46890;DHT22;32625;51.080;16.970;2023-01-15T04:17:55;8.20;99.90
46890;DHT22;32625;51.080;16.970;2023-01-15T04:20:23;8.10;99.90
46890;DHT22;32625;51.080;16.970;2023-01-15T04:22:50;8.10;99.90
46890;DHT22;32625;51.080;16.970;2023-01-15T04:25:17;8.10;99.90
46890;DHT22;32625;51.080;16.970;2023-01-15T04:27:44;8.10;99.90
46890;DHT22;32625;51.080;16.970;2023-01-15T04:30:11;8.00;99.90
46890;DHT22;32625;51.080;16.970;2023-01-15T04:32:38;7.90;99.90
46890;DHT22;32625;51.080;16.970;2023-01-15T04:35:05;7.90;99.90
46890;DHT22;32625;51.080;16.970;2023-01-15T04:37:32;7.90;99.90
46890;DHT22;32625;51.080;16.970;2023-01-15T04:39:59;7.80;99.90
46890;DHT22;32625;51.080;16.970;2023-01-15T04:42:26;7.70;99.90
46890;DHT22;32625;51.080;16.970;2023-01-15T04:45:12;7.70;99.90
46890;DHT22;32625;51.080;16.970;2023-01-15T04:47:39;7.80;99.90
46890;DHT22;32625;51.080;16.970;2023-01-15T04:50:06;7.70;99.90
46890;DHT22;32625;51.080;16.970;2023-01-15T04:52:33;7.70;99.90
46890;DHT22;32625;51.080;16.970;2023-01-15T04:55:00;7.60;99.90
46890;DHT22;32625;51.080;16.970;2023-01-15T04:57:27;7.70;99.90
46890;DHT22;32625;51.080;16.970;2023-01-15T04:59:54;7.70;99.90
46890;DHT22;32625;51.080;16.970;2023-01-15T05:02:21;7.60;99.90
46890;DHT22;32625;51.080;16.970;2023-01-15T05:04:48;7.70;99.90
46890;DHT22;32625;51.080;16.970;2023-01-15T05:07:16;7.70;99.90
46890;DHT22;32625;51.080;16.970;2023-01-15T05:09:43;7.70;99.90
46890;DHT22;32625;51.080;16.970;2023-01-15T05:12:10;7.70;99.90
46890;DHT22;32625;51.080;16.970;2023-01-15T05:14:37;7.70;99.90
46890;DHT22;32625;51.080;16.970;2023-01-15T05:17:04;7.70;99.90
46890;DHT22;32625;51.080;16.970;2023-01-15T05:19:31;7.70;99.90
46890;DHT22;32625;51.080;16.970;2023-01-15T05:21:58;7.70;99.90
46890;DHT22;32625;51.080;16.970;2023-01-15T05:24:25;7.70;99.90
46890;DHT22;32625;51.080;16.970;2023-01-15T05:26:51;7.70;99.90
46890;DHT22;32625;51.080;16.970;2023-01-15T05:29:19;7.60;99.90
46890;DHT22;32625;51.080;16.970;2023-01-15T05:31:46;7.60;99.90
46890;DHT22;32625;51.080;16.970;2023-01-15T05:34:13;7.60;99.90
46890;DHT22;32625;51.080;16.970;2023-01-15T05:36:40;7.60;99.90
46890;DHT22;32625;51.080;16.970;2023-01-15T05:39:08;7.60;99.90
46890;DHT22;32625;51.080;16.970;2023-01-15T05:41:35;7.60;99.90
46890;DHT22;32625;51.080;16.970;2023-01-15T05:44:21;7.60;99.90
46890;DHT22;32625;51.080;16.970;2023-01-15T05:46:49;7.60;99.90
46890;DHT22;32625;51.080;16.970;2023-01-15T05:49:18;7.60;99.90
46890;DHT22;32625;51.080;16.970;2023-01-15T05:51:45;7.60;99.90
46890;DHT22;32625;51.080;16.970;2023-01-15T05:54:13;7.60;99.90
46890;DHT22;32625;51.080;16.970;2023-01-15T05:56:41;7.60;99.90
46890;DHT22;32625;51.080;16.970;2023-01-15T05:59:08;7.60;99.90
46890;DHT22;32625;51.080;16.970;2023-01-15T06:01:35;7.60;99.90
46890;DHT22;32625;51.080;16.970;2023-01-15T06:04:03;7.60;99.90
46890;DHT22;32625;51.080;16.970;2023-01-15T06:06:31;7.60;99.90
46890;DHT22;32625;51.080;16.970;2023-01-15T06:08:58;7.60;99.90
46890;DHT22;32625;51.080;16.970;2023-01-15T06:11:25;7.60;99.90
46890;DHT22;32625;51.080;16.970;2023-01-15T06:13:52;7.60;99.90
46890;DHT22;32625;51.080;16.970;2023-01-15T06:16:19;7.60;99.90
46890;DHT22;32625;51.080;16.970;2023-01-15T06:18:46;7.60;99.90
46890;DHT22;32625;51.080;16.970;2023-01-15T06:21:13;7.60;99.90
46890;DHT22;32625;51.080;16.970;2023-01-15T06:23:40;7.60;99.90
46890;DHT22;32625;51.080;16.970;2023-01-15T06:26:12;7.60;99.90
46890;DHT22;32625;51.080;16.970;2023-01-15T06:28:39;7.60;99.90
46890;DHT22;32625;51.080;16.970;2023-01-15T06:31:07;7.60;99.90
46890;DHT22;32625;51.080;16.970;2023-01-15T06:33:34;7.60;99.90
46890;DHT22;32625;51.080;16.970;2023-01-15T06:36:02;7.60;99.90
46890;DHT22;32625;51.080;16.970;2023-01-15T06:38:29;7.50;99.90
46890;DHT22;32625;51.080;16.970;2023-01-15T06:41:00;7.60;99.90
46890;DHT22;32625;51.080;16.970;2023-01-15T06:43:27;7.50;99.90
46890;DHT22;32625;51.080;16.970;2023-01-15T06:46:13;7.60;99.90
46890;DHT22;32625;51.080;16.970;2023-01-15T06:48:59;7.60;99.90
46890;DHT22;32625;51.080;16.970;2023-01-15T06:51:26;7.60;99.90
46890;DHT22;32625;51.080;16.970;2023-01-15T06:53:55;7.60;99.90
46890;DHT22;32625;51.080;16.970;2023-01-15T06:56:22;7.60;99.90
46890;DHT22;32625;51.080;16.970;2023-01-15T06:58:49;7.70;99.90
46890;DHT22;32625;51.080;16.970;2023-01-15T07:01:16;7.60;99.90
46890;DHT22;32625;51.080;16.970;2023-01-15T07:03:43;7.60;99.90
46890;DHT22;32625;51.080;16.970;2023-01-15T07:06:11;7.60;99.90
46890;DHT22;32625;51.080;16.970;2023-01-15T07:08:39;7.70;99.90
46890;DHT22;32625;51.080;16.970;2023-01-15T07:11:07;7.60;99.90
46890;DHT22;32625;51.080;16.970;2023-01-15T07:13:34;7.60;99.90
46890;DHT22;32625;51.080;16.970;2023-01-15T07:16:02;7.60;99.90
46890;DHT22;32625;51.080;16.970;2023-01-15T07:18:29;7.60;99.90
46890;DHT22;32625;51.080;16.970;2023-01-15T07:20:57;7.60;99.90
46890;DHT22;32625;51.080;16.970;2023-01-15T07:23:24;7.60;99.90
46890;DHT22;32625;51.080;16.970;2023-01-15T07:25:52;7.60;99.90
46890;DHT22;32625;51.080;16.970;2023-01-15T07:28:19;7.60;99.90
46890;DHT22;32625;51.080;16.970;2023-01-15T07:30:46;7.60;99.90
46890;DHT22;32625;51.080;16.970;2023-01-15T07:33:13;7.60;99.90
46890;DHT22;32625;51.080;16.970;2023-01-15T07:35:40;7.60;99.90
46890;DHT22;32625;51.080;16.970;2023-01-15T07:38:08;7.60;99.90
46890;DHT22;32625;51.080;16.970;2023-01-15T07:40:35;7.60;99.90
46890;DHT22;32625;51.080;16.970;2023-01-15T07:43:02;7.50;99.90
46890;DHT22;32625;51.080;16.970;2023-01-15T07:45:48;7.50;99.90
46890;DHT22;32625;51.080;16.970;2023-01-15T07:48:33;7.50;99.90
46890;DHT22;32625;51.080;16.970;2023-01-15T07:51:19;7.60;99.90
46890;DHT22;32625;51.080;16.970;2023-01-15T07:53:45;7.60;99.90
46890;DHT22;32625;51.080;16.970;2023-01-15T07:56:12;7.60;99.90
46890;DHT22;32625;51.080;16.970;2023-01-15T07:58:39;7.60;99.90
46890;DHT22;32625;51.080;16.970;2023-01-15T08:01:06;7.50;99.90
46890;DHT22;32625;51.080;16.970;2023-01-15T08:03:34;7.60;99.90
46890;DHT22;32625;51.080;16.970;2023-01-15T08:06:01;7.60;99.90
46890;DHT22;32625;51.080;16.970;2023-01-15T08:08:28;7.60;99.90
46890;DHT22;32625;51.080;16.970;2023-01-15T08:10:59;7.60;99.90
46890;DHT22;32625;51.080;16.970;2023-01-15T08:13:45;7.60;99.90
46890;DHT22;32625;51.080;16.970;2023-01-15T08:16:38;7.60;99.90
46890;DHT22;32625;51.080;16.970;2023-01-15T08:19:05;7.60;99.90
46890;DHT22;32625;51.080;16.970;2023-01-15T08:21:32;7.60;99.90
46890;DHT22;32625;51.080;16.970;2023-01-15T08:23:59;7.60;99.90
46890;DHT22;32625;51.080;16.970;2023-01-15T08:26:26;7.60;99.90
46890;DHT22;32625;51.080;16.970;2023-01-15T08:28:53;7.60;99.90
46890;DHT22;32625;51.080;16.970;2023-01-15T08:31:20;7.60;99.90
46890;DHT22;32625;51.080;16.970;2023-01-15T08:33:47;7.60;99.90
46890;DHT22;32625;51.080;16.970;2023-01-15T08:36:14;7.60;99.90
46890;DHT22;32625;51.080;16.970;2023-01-15T08:38:42;7.60;99.90
46890;DHT22;32625;51.080;16.970;2023-01-15T08:41:09;7.60;99.90
46890;DHT22;32625;51.080;16.970;2023-01-15T08:43:36;7.70;99.90
46890;DHT22;32625;51.080;16.970;2023-01-15T08:46:05;7.60;99.90
46890;DHT22;32625;51.080;16.970;2023-01-15T08:48:32;7.70;99.90
46890;DHT22;32625;51.080;16.970;2023-01-15T08:51:03;7.70;99.90
46890;DHT22;32625;51.080;16.970;2023-01-15T08:53:30;7.70;99.90
46890;DHT22;32625;51.080;16.970;2023-01-15T08:55:57;7.70;99.90
46890;DHT22;32625;51.080;16.970;2023-01-15T08:58:28;7.70;99.90
46890;DHT22;32625;51.080;16.970;2023-01-15T09:00:55;7.70;99.90
46890;DHT22;32625;51.080;16.970;2023-01-15T09:03:22;7.80;99.90
46890;DHT22;32625;51.080;16.970;2023-01-15T09:05:49;7.80;99.90
46890;DHT22;32625;51.080;16.970;2023-01-15T09:08:16;7.80;99.90
46890;DHT22;32625;51.080;16.970;2023-01-15T09:10:45;7.80;99.90
46890;DHT22;32625;51.080;16.970;2023-01-15T09:13:12;7.80;99.90
46890;DHT22;32625;51.080;16.970;2023-01-15T09:15:39;7.90;99.90
46890;DHT22;32625;51.080;16.970;2023-01-15T09:18:06;7.80;99.90
46890;DHT22;32625;51.080;16.970;2023-01-15T09:20:36;7.80;99.90
46890;DHT22;32625;51.080;16.970;2023-01-15T09:23:03;7.80;99.90
46890;DHT22;32625;51.080;16.970;2023-01-15T09:25:30;7.90;99.90
46890;DHT22;32625;51.080;16.970;2023-01-15T09:27:57;7.80;99.90
46890;DHT22;32625;51.080;16.970;2023-01-15T09:30:24;7.90;99.90
46890;DHT22;32625;51.080;16.970;2023-01-15T09:32:51;7.90;99.90
46890;DHT22;32625;51.080;16.970;2023-01-15T09:35:18;7.90;99.90
46890;DHT22;32625;51.080;16.970;2023-01-15T09:37:49;8.00;99.90
46890;DHT22;32625;51.080;16.970;2023-01-15T09:40:28;8.00;99.90
46890;DHT22;32625;51.080;16.970;2023-01-15T09:43:01;8.10;99.90
46890;DHT22;32625;51.080;16.970;2023-01-15T09:45:35;8.00;99.90
46890;DHT22;32625;51.080;16.970;2023-01-15T09:51:08;8.00;99.90
46890;DHT22;32625;51.080;16.970;2023-01-15T09:56:21;8.00;99.90
46890;DHT22;32625;51.080;16.970;2023-01-15T09:58:49;8.00;99.90
46890;DHT22;32625;51.080;16.970;2023-01-15T10:01:17;8.00;99.90
46890;DHT22;32625;51.080;16.970;2023-01-15T10:04:10;8.00;99.90
46890;DHT22;32625;51.080;16.970;2023-01-15T10:06:37;8.00;99.90
46890;DHT22;32625;51.080;16.970;2023-01-15T10:11:38;8.00;99.90
46890;DHT22;32625;51.080;16.970;2023-01-15T10:14:33;8.00;99.90
46890;DHT22;32625;51.080;16.970;2023-01-15T10:17:08;8.00;99.90
46890;DHT22;32625;51.080;16.970;2023-01-15T10:19:40;8.10;99.90
46890;DHT22;32625;51.080;16.970;2023-01-15T10:22:13;8.10;99.90
46890;DHT22;32625;51.080;16.970;2023-01-15T10:24:45;8.10;99.90
46890;DHT22;32625;51.080;16.970;2023-01-15T10:27:17;8.10;99.90
46890;DHT22;32625;51.080;16.970;2023-01-15T10:29:47;8.10;99.90
46890;DHT22;32625;51.080;16.970;2023-01-15T10:37:32;8.20;99.90
46890;DHT22;32625;51.080;16.970;2023-01-15T10:45:38;8.30;99.90
46890;DHT22;32625;51.080;16.970;2023-01-15T10:51:00;8.50;99.90
46890;DHT22;32625;51.080;16.970;2023-01-15T10:56:06;8.40;99.90
46890;DHT22;32625;51.080;16.970;2023-01-15T11:01:08;8.40;99.90
46890;DHT22;32625;51.080;16.970;2023-01-15T11:03:37;8.40;99.90
46890;DHT22;32625;51.080;16.970;2023-01-15T11:06:05;8.40;99.90
46890;DHT22;32625;51.080;16.970;2023-01-15T11:08:33;8.40;99.90
46890;DHT22;32625;51.080;16.970;2023-01-15T11:11:23;8.40;99.90
46890;DHT22;32625;51.080;16.970;2023-01-15T11:14:11;8.40;99.90
46890;DHT22;32625;51.080;16.970;2023-01-15T11:16:56;8.40;99.90
46890;DHT22;32625;51.080;16.970;2023-01-15T11:19:41;8.50;99.90
46890;DHT22;32625;51.080;16.970;2023-01-15T11:22:13;8.60;99.90
46890;DHT22;32625;51.080;16.970;2023-01-15T11:24:45;8.60;99.90
46890;DHT22;32625;51.080;16.970;2023-01-15T11:27:17;8.70;99.90
46890;DHT22;32625;51.080;16.970;2023-01-15T11:29:45;8.80;99.90
46890;DHT22;32625;51.080;16.970;2023-01-15T11:32:22;8.80;99.90
46890;DHT22;32625;51.080;16.970;2023-01-15T11:35:00;8.90;99.90
46890;DHT22;32625;51.080;16.970;2023-01-15T11:37:27;8.90;99.90
46890;DHT22;32625;51.080;16.970;2023-01-15T11:39:58;8.90;99.90
46890;DHT22;32625;51.080;16.970;2023-01-15T11:42:36;8.80;99.90
46890;DHT22;32625;51.080;16.970;2023-01-15T11:45:23;8.80;99.90
46890;DHT22;32625;51.080;16.970;2023-01-15T11:48:16;8.80;99.90
46890;DHT22;32625;51.080;16.970;2023-01-15T11:51:05;8.80;99.90
46890;DHT22;32625;51.080;16.970;2023-01-15T11:53:58;8.80;99.90
46890;DHT22;32625;51.080;16.970;2023-01-15T11:56:25;8.80;99.90
46890;DHT22;32625;51.080;16.970;2023-01-15T11:58:53;8.80;99.90
46890;DHT22;32625;51.080;16.970;2023-01-15T12:01:24;8.80;99.90
46890;DHT22;32625;51.080;16.970;2023-01-15T12:03:54;8.70;99.90
46890;DHT22;32625;51.080;16.970;2023-01-15T12:06:22;8.70;99.90
46890;DHT22;32625;51.080;16.970;2023-01-15T12:13:56;8.70;99.90
46890;DHT22;32625;51.080;16.970;2023-01-15T12:16:32;8.70;99.90
46890;DHT22;32625;51.080;16.970;2023-01-15T12:24:31;8.60;99.90
46890;DHT22;32625;51.080;16.970;2023-01-15T12:29:35;8.60;99.90
46890;DHT22;32625;51.080;16.970;2023-01-15T12:32:18;8.50;99.90
46890;DHT22;32625;51.080;16.970;2023-01-15T12:34:48;8.40;99.90
46890;DHT22;32625;51.080;16.970;2023-01-15T12:37:22;8.20;99.90
46890;DHT22;32625;51.080;16.970;2023-01-15T12:42:19;7.90;99.90
46890;DHT22;32625;51.080;16.970;2023-01-15T12:45:08;7.80;99.90
46890;DHT22;32625;51.080;16.970;2023-01-15T12:47:48;7.70;99.90
46890;DHT22;32625;51.080;16.970;2023-01-15T12:52:49;7.40;99.90
46890;DHT22;32625;51.080;16.970;2023-01-15T12:55:18;7.30;99.90
46890;DHT22;32625;51.080;16.970;2023-01-15T12:57:50;7.20;99.90
46890;DHT22;32625;51.080;16.970;2023-01-15T13:00:30;7.00;99.90
46890;DHT22;32625;51.080;16.970;2023-01-15T13:03:13;7.10;99.90
46890;DHT22;32625;51.080;16.970;2023-01-15T13:05:46;7.00;99.90
46890;DHT22;32625;51.080;16.970;2023-01-15T13:10:49;6.80;99.90
46890;DHT22;32625;51.080;16.970;2023-01-15T13:13:17;6.70;99.90
46890;DHT22;32625;51.080;16.970;2023-01-15T13:21:16;6.50;99.90
46890;DHT22;32625;51.080;16.970;2023-01-15T13:31:53;6.40;99.90
46890;DHT22;32625;51.080;16.970;2023-01-15T13:36:54;6.40;99.90
46890;DHT22;32625;51.080;16.970;2023-01-15T13:39:36;6.30;99.90
46890;DHT22;32625;51.080;16.970;2023-01-15T13:42:03;6.40;99.90
46890;DHT22;32625;51.080;16.970;2023-01-15T13:44:51;6.30;99.90
46890;DHT22;32625;51.080;16.970;2023-01-15T13:47:21;6.30;99.90
46890;DHT22;32625;51.080;16.970;2023-01-15T13:49:50;6.30;99.90
46890;DHT22;32625;51.080;16.970;2023-01-15T13:52:29;6.30;99.90
46890;DHT22;32625;51.080;16.970;2023-01-15T13:55:06;6.30;99.90
46890;DHT22;32625;51.080;16.970;2023-01-15T13:57:35;6.30;99.90
46890;DHT22;32625;51.080;16.970;2023-01-15T14:00:04;6.30;99.90
46890;DHT22;32625;51.080;16.970;2023-01-15T14:02:37;6.30;99.90
46890;DHT22;32625;51.080;16.970;2023-01-15T14:07:48;6.20;99.90
46890;DHT22;32625;51.080;16.970;2023-01-15T14:15:20;6.30;99.90
46890;DHT22;32625;51.080;16.970;2023-01-15T14:17:59;6.20;99.90
46890;DHT22;32625;51.080;16.970;2023-01-15T14:25:41;5.50;99.90
46890;DHT22;32625;51.080;16.970;2023-01-15T14:35:45;6.00;99.90
46890;DHT22;32625;51.080;16.970;2023-01-15T14:38:17;6.00;99.90
46890;DHT22;32625;51.080;16.970;2023-01-15T14:40:54;6.00;99.90
46890;DHT22;32625;51.080;16.970;2023-01-15T14:43:22;5.90;99.90
46890;DHT22;32625;51.080;16.970;2023-01-15T14:45:51;6.00;99.90
46890;DHT22;32625;51.080;16.970;2023-01-15T14:53:39;5.20;99.90
46890;DHT22;32625;51.080;16.970;2023-01-15T14:56:28;5.90;99.90
46890;DHT22;32625;51.080;16.970;2023-01-15T15:01:59;6.00;99.90
46890;DHT22;32625;51.080;16.970;2023-01-15T15:04:35;6.00;99.90
46890;DHT22;32625;51.080;16.970;2023-01-15T15:07:14;6.00;99.90
46890;DHT22;32625;51.080;16.970;2023-01-15T15:09:58;6.00;99.90
46890;DHT22;32625;51.080;16.970;2023-01-15T15:20:28;5.90;99.90
46890;DHT22;32625;51.080;16.970;2023-01-15T15:23:03;5.90;99.90
46890;DHT22;32625;51.080;16.970;2023-01-15T15:25:32;5.90;99.90
46890;DHT22;32625;51.080;16.970;2023-01-15T15:30:42;5.90;99.90
46890;DHT22;32625;51.080;16.970;2023-01-15T15:33:39;5.90;99.90
46890;DHT22;32625;51.080;16.970;2023-01-15T15:36:07;5.90;99.90
46890;DHT22;32625;51.080;16.970;2023-01-15T15:41:43;5.80;99.90
46890;DHT22;32625;51.080;16.970;2023-01-15T15:44:44;5.90;99.90
46890;DHT22;32625;51.080;16.970;2023-01-15T15:47:46;5.90;99.90
46890;DHT22;32625;51.080;16.970;2023-01-15T15:50:47;5.90;99.90
46890;DHT22;32625;51.080;16.970;2023-01-15T16:05:29;5.80;99.90
46890;DHT22;32625;51.080;16.970;2023-01-15T16:10:48;5.80;99.90
46890;DHT22;32625;51.080;16.970;2023-01-15T16:16:01;5.80;99.90
46890;DHT22;32625;51.080;16.970;2023-01-15T16:18:51;5.90;99.90
46890;DHT22;32625;51.080;16.970;2023-01-15T16:21:32;5.80;99.90
46890;DHT22;32625;51.080;16.970;2023-01-15T16:24:04;5.80;99.90
46890;DHT22;32625;51.080;16.970;2023-01-15T16:26:41;5.80;99.90
46890;DHT22;32625;51.080;16.970;2023-01-15T16:29:16;5.80;99.90
46890;DHT22;32625;51.080;16.970;2023-01-15T16:32:11;5.80;99.90
46890;DHT22;32625;51.080;16.970;2023-01-15T16:34:43;5.80;99.90
46890;DHT22;32625;51.080;16.970;2023-01-15T16:37:49;5.80;99.90
46890;DHT22;32625;51.080;16.970;2023-01-15T16:44:25;5.80;99.90
46890;DHT22;32625;51.080;16.970;2023-01-15T16:47:38;5.80;99.90
46890;DHT22;32625;51.080;16.970;2023-01-15T16:56:01;5.80;99.90
46890;DHT22;32625;51.080;16.970;2023-01-15T17:01:52;5.70;99.90
46890;DHT22;32625;51.080;16.970;2023-01-15T17:45:48;5.50;99.90
46890;DHT22;32625;51.080;16.970;2023-01-15T17:48:36;5.60;99.90
46890;DHT22;32625;51.080;16.970;2023-01-15T18:01:39;5.50;99.90
46890;DHT22;32625;51.080;16.970;2023-01-15T18:05:14;5.50;99.90
46890;DHT22;32625;51.080;16.970;2023-01-15T18:11:48;5.40;99.90
46890;DHT22;32625;51.080;16.970;2023-01-15T18:14:19;5.40;99.90
46890;DHT22;32625;51.080;16.970;2023-01-15T18:17:02;5.30;99.90
46890;DHT22;32625;51.080;16.970;2023-01-15T18:19:38;5.30;99.90
46890;DHT22;32625;51.080;16.970;2023-01-15T18:22:50;6.10;99.90
46890;DHT22;32625;51.080;16.970;2023-01-15T18:25:55;5.20;99.90
46890;DHT22;32625;51.080;16.970;2023-01-15T18:28:24;4.90;99.90
46890;DHT22;32625;51.080;16.970;2023-01-15T18:31:08;5.20;99.90
46890;DHT22;32625;51.080;16.970;2023-01-15T18:34:31;5.20;99.90
46890;DHT22;32625;51.080;16.970;2023-01-15T18:37:17;5.30;99.90
46890;DHT22;32625;51.080;16.970;2023-01-15T18:39:59;5.20;99.90
46890;DHT22;32625;51.080;16.970;2023-01-15T18:42:45;4.60;99.90
46890;DHT22;32625;51.080;16.970;2023-01-15T18:46:11;5.70;99.90
46890;DHT22;32625;51.080;16.970;2023-01-15T18:49:06;5.10;99.90
46890;DHT22;32625;51.080;16.970;2023-01-15T18:52:09;5.20;99.90
46890;DHT22;32625;51.080;16.970;2023-01-15T18:55:42;5.20;99.90
46890;DHT22;32625;51.080;16.970;2023-01-15T18:59:23;5.20;99.90
46890;DHT22;32625;51.080;16.970;2023-01-15T19:02:49;5.20;99.90
46890;DHT22;32625;51.080;16.970;2023-01-15T19:06:10;5.20;99.90
46890;DHT22;32625;51.080;16.970;2023-01-15T19:09:23;5.20;99.90
46890;DHT22;32625;51.080;16.970;2023-01-15T19:13:04;5.20;99.90
46890;DHT22;32625;51.080;16.970;2023-01-15T19:16:31;5.20;99.90
46890;DHT22;32625;51.080;16.970;2023-01-15T19:19:17;5.20;99.90
46890;DHT22;32625;51.080;16.970;2023-01-15T19:22:35;5.10;99.90
46890;DHT22;32625;51.080;16.970;2023-01-15T19:25:24;5.60;99.90
46890;DHT22;32625;51.080;16.970;2023-01-15T19:28:27;5.10;99.90
46890;DHT22;32625;51.080;16.970;2023-01-15T19:32:02;5.70;99.90
46890;DHT22;32625;51.080;16.970;2023-01-15T19:35:22;5.10;99.90
46890;DHT22;32625;51.080;16.970;2023-01-15T19:38:46;5.00;99.90
46890;DHT22;32625;51.080;16.970;2023-01-15T19:41:35;5.00;99.90
46890;DHT22;32625;51.080;16.970;2023-01-15T19:44:41;4.90;99.90
46890;DHT22;32625;51.080;16.970;2023-01-15T19:47:32;4.80;99.90
46890;DHT22;32625;51.080;16.970;2023-01-15T19:50:20;5.40;99.90
46890;DHT22;32625;51.080;16.970;2023-01-15T19:52:57;4.70;99.90